createdAt,value
2024-05-09T00:00:22.465Z,95721.00
2024-05-09T00:01:18.328Z,95718.00
2024-05-09T00:02:17.282Z,95719.00
2024-05-09T00:03:17.345Z,95716.00
2024-05-09T00:04:17.397Z,95714.00
2024-05-09T00:05:17.455Z,95713.00
2024-05-09T00:06:17.432Z,95714.00
2024-05-09T00:07:17.425Z,95717.00
2024-05-09T00:08:17.445Z,95714.00
2024-05-09T00:09:17.444Z,95714.00
2024-05-09T00:10:25.013Z,95714.00
2024-05-09T00:11:18.575Z,95713.00
2024-05-09T00:12:17.668Z,95713.00
2024-05-09T00:13:17.512Z,95713.00
2024-05-09T00:14:17.647Z,95711.00
2024-05-09T00:15:17.585Z,95711.00
2024-05-09T00:16:18.143Z,95713.00
2024-05-09T00:17:17.698Z,95714.00
2024-05-09T00:18:18.025Z,95714.00
2024-05-09T00:19:17.762Z,95713.00
2024-05-09T00:20:24.172Z,95712.00
2024-05-09T00:21:18.701Z,95715.00
2024-05-09T00:22:17.736Z,95714.00
2024-05-09T00:23:17.785Z,95716.00
2024-05-09T00:24:17.752Z,95715.00
2024-05-09T00:25:17.781Z,95717.00
2024-05-09T00:26:17.839Z,95715.00
2024-05-09T00:27:17.834Z,95715.00
2024-05-09T00:28:17.839Z,95714.00
2024-05-09T00:29:17.967Z,95715.00
2024-05-09T00:30:24.469Z,95713.00
2024-05-09T00:31:18.967Z,95712.00
2024-05-09T00:32:18.122Z,95711.00
2024-05-09T00:33:18.278Z,95710.00
2024-05-09T00:34:18.149Z,95707.00
2024-05-09T00:35:18.030Z,95705.00
2024-05-09T00:36:18.082Z,95706.00
2024-05-09T00:37:18.078Z,95706.00
2024-05-09T00:38:18.135Z,95704.00
2024-05-09T00:39:18.128Z,95704.00
2024-05-09T00:40:22.903Z,95701.00
2024-05-09T00:41:19.906Z,95703.00
2024-05-09T00:42:18.216Z,95703.00
2024-05-09T00:43:18.232Z,95703.00
2024-05-09T00:44:18.304Z,95697.00
2024-05-09T00:45:18.589Z,95698.00
2024-05-09T00:46:18.272Z,95700.00
2024-05-09T00:47:18.434Z,95698.00
2024-05-09T00:48:20.792Z,95698.00
2024-05-09T00:50:22.852Z,95694.00
2024-05-09T00:51:19.468Z,95694.00
2024-05-09T00:52:18.414Z,95693.00
2024-05-09T00:53:18.508Z,95691.00
2024-05-09T00:54:18.496Z,95688.00
2024-05-09T00:55:18.496Z,95687.00
2024-05-09T00:56:18.586Z,95684.00
2024-05-09T00:57:18.527Z,95682.00
2024-05-09T00:58:18.571Z,95681.00
2024-05-09T00:59:18.646Z,95681.00
2024-05-09T01:00:26.862Z,95679.00
2024-05-09T01:01:19.802Z,95675.00
2024-05-09T01:02:18.959Z,95676.00
2024-05-09T01:03:19.139Z,95673.00
2024-05-09T01:04:18.867Z,95671.00
2024-05-09T01:05:18.943Z,95671.00
2024-05-09T01:06:18.924Z,95667.00
2024-05-09T01:07:18.883Z,95670.00
2024-05-09T01:08:18.947Z,95668.00
2024-05-09T01:09:18.912Z,95668.00
2024-05-09T01:10:27.469Z,95666.00
2024-05-09T01:11:20.176Z,95667.00
2024-05-09T01:12:19.185Z,95667.00
2024-05-09T01:13:19.072Z,95665.00
2024-05-09T01:14:19.145Z,95666.00
2024-05-09T01:15:19.115Z,95666.00
2024-05-09T01:16:19.160Z,95664.00
2024-05-09T01:17:19.240Z,95666.00
2024-05-09T01:18:19.320Z,95665.00
2024-05-09T01:19:19.375Z,95666.00
2024-05-09T01:20:22.957Z,95667.00
2024-05-09T01:21:20.378Z,95667.00
2024-05-09T01:22:19.383Z,95666.00
2024-05-09T01:23:19.382Z,95667.00
2024-05-09T01:24:19.383Z,95666.00
2024-05-09T01:25:19.392Z,95669.00
2024-05-09T01:26:19.464Z,95668.00
2024-05-09T01:27:19.477Z,95669.00
2024-05-09T01:28:19.474Z,95671.00
2024-05-09T01:29:19.495Z,95671.00
2024-05-09T01:31:19.649Z,95670.00
2024-05-09T01:32:19.776Z,95672.00
2024-05-09T01:33:19.923Z,95672.00
2024-05-09T01:34:19.859Z,95673.00
2024-05-09T01:35:19.986Z,95673.00
2024-05-09T01:36:20.056Z,95671.00
2024-05-09T01:37:20.188Z,95672.00
2024-05-09T01:38:20.367Z,95672.00
2024-05-09T01:39:20.457Z,95671.00
2024-05-09T01:40:25.369Z,95671.00
2024-05-09T01:41:21.646Z,95672.00
2024-05-09T01:42:20.622Z,95671.00
2024-05-09T01:43:20.648Z,95671.00
2024-05-09T01:44:20.722Z,95670.00
2024-05-09T01:45:20.696Z,95670.00
2024-05-09T01:46:20.715Z,95670.00
2024-05-09T01:47:20.990Z,95669.00
2024-05-09T01:48:21.013Z,95669.00
2024-05-09T01:49:20.885Z,95669.00
2024-05-09T01:51:20.958Z,95668.00
2024-05-09T01:52:20.882Z,95667.00
2024-05-09T01:53:21.053Z,95666.00
2024-05-09T01:54:20.995Z,95669.00
2024-05-09T01:55:21.025Z,95668.00
2024-05-09T01:56:21.206Z,95670.00
2024-05-09T01:57:21.213Z,95670.00
2024-05-09T01:58:21.354Z,95670.00
2024-05-09T01:59:21.585Z,95668.00
2024-05-09T02:01:21.676Z,95670.00
2024-05-09T02:02:21.837Z,95668.00
2024-05-09T02:03:21.874Z,95669.00
2024-05-09T02:04:21.980Z,95669.00
2024-05-09T02:05:22.078Z,95670.00
2024-05-09T02:06:21.938Z,95667.00
2024-05-09T02:07:22.029Z,95667.00
2024-05-09T02:08:22.491Z,95668.00
2024-05-09T02:09:22.186Z,95669.00
2024-05-09T02:10:26.419Z,95667.00
2024-05-09T02:11:23.252Z,95668.00
2024-05-09T02:12:22.380Z,95665.00
2024-05-09T02:13:22.251Z,95668.00
2024-05-09T02:14:22.289Z,95667.00
2024-05-09T02:15:22.268Z,95666.00
2024-05-09T02:16:22.325Z,95666.00
2024-05-09T02:17:22.756Z,95664.00
2024-05-09T02:18:22.573Z,95665.00
2024-05-09T02:19:22.593Z,95666.00
2024-05-09T02:21:22.397Z,95667.00
2024-05-09T02:22:22.408Z,95667.00
2024-05-09T02:23:22.504Z,95668.00
2024-05-09T02:24:22.516Z,95665.00
2024-05-09T02:25:22.469Z,95667.00
2024-05-09T02:26:22.563Z,95664.00
2024-05-09T02:27:22.642Z,95666.00
2024-05-09T02:28:22.752Z,95666.00
2024-05-09T02:29:23.032Z,95665.00
2024-05-09T02:30:30.996Z,95664.00
2024-05-09T02:31:24.054Z,95664.00
2024-05-09T02:32:23.118Z,95663.00
2024-05-09T02:33:23.558Z,95659.00
2024-05-09T02:34:23.482Z,95660.00
2024-05-09T02:35:23.801Z,95659.00
2024-05-09T02:36:23.140Z,95659.00
2024-05-09T02:37:23.162Z,95658.00
2024-05-09T02:38:23.200Z,95660.00
2024-05-09T02:39:23.230Z,95658.00
2024-05-09T02:41:23.342Z,95659.00
2024-05-09T02:42:23.363Z,95656.00
2024-05-09T02:43:23.413Z,95656.00
2024-05-09T02:44:23.646Z,95657.00
2024-05-09T02:45:23.565Z,95659.00
2024-05-09T02:46:23.587Z,95657.00
2024-05-09T02:47:23.785Z,95657.00
2024-05-09T02:48:23.863Z,95658.00
2024-05-09T02:49:23.999Z,95657.00
2024-05-09T02:50:33.067Z,95656.00
2024-05-09T02:51:25.079Z,95655.00
2024-05-09T02:52:24.088Z,95656.00
2024-05-09T02:53:24.136Z,95659.00
2024-05-09T02:54:24.140Z,95657.00
2024-05-09T02:55:24.191Z,95658.00
2024-05-09T02:56:24.294Z,95659.00
2024-05-09T02:57:24.266Z,95659.00
2024-05-09T02:58:24.276Z,95660.00
2024-05-09T02:59:24.383Z,95658.00
2024-05-09T03:00:29.953Z,95657.00
2024-05-09T03:01:25.459Z,95658.00
2024-05-09T03:02:24.497Z,95658.00
2024-05-09T03:03:24.820Z,95658.00
2024-05-09T03:04:24.437Z,95659.00
2024-05-09T03:05:24.492Z,95657.00
2024-05-09T03:06:24.449Z,95658.00
2024-05-09T03:07:24.494Z,95657.00
2024-05-09T03:08:24.542Z,95657.00
2024-05-09T03:09:24.558Z,95656.00
2024-05-09T03:10:28.588Z,95653.00
2024-05-09T03:11:24.710Z,95653.00
2024-05-09T03:12:24.688Z,95654.00
2024-05-09T03:13:24.656Z,95653.00
2024-05-09T03:14:24.819Z,95653.00
2024-05-09T03:15:24.712Z,95653.00
2024-05-09T03:16:24.750Z,95654.00
2024-05-09T03:17:24.979Z,95655.00
2024-05-09T03:18:24.965Z,95654.00
2024-05-09T03:19:24.906Z,95655.00
2024-05-09T03:20:32.311Z,95655.00
2024-05-09T03:21:25.858Z,95657.00
2024-05-09T03:22:24.924Z,95656.00
2024-05-09T03:23:24.943Z,95660.00
2024-05-09T03:24:24.918Z,95660.00
2024-05-09T03:25:25.012Z,95659.00
2024-05-09T03:26:25.087Z,95659.00
2024-05-09T03:27:25.050Z,95660.00
2024-05-09T03:28:25.052Z,95661.00
2024-05-09T03:29:25.254Z,95661.00
2024-05-09T03:30:31.260Z,95660.00
2024-05-09T03:31:26.148Z,95660.00
2024-05-09T03:32:25.191Z,95660.00
2024-05-09T03:33:25.462Z,95660.00
2024-05-09T03:34:25.325Z,95658.00
2024-05-09T03:35:25.391Z,95660.00
2024-05-09T03:36:25.237Z,95658.00
2024-05-09T03:37:25.237Z,95661.00
2024-05-09T03:38:25.381Z,95659.00
2024-05-09T03:39:25.278Z,95660.00
2024-05-09T03:40:28.964Z,95661.00
2024-05-09T03:41:26.421Z,95661.00
2024-05-09T03:42:25.342Z,95661.00
2024-05-09T03:43:25.422Z,95662.00
2024-05-09T03:44:25.551Z,95660.00
2024-05-09T03:45:25.492Z,95661.00
2024-05-09T03:46:25.527Z,95660.00
2024-05-09T03:47:25.636Z,95659.00
2024-05-09T03:48:25.725Z,95659.00
2024-05-09T03:49:25.769Z,95657.00
2024-05-09T03:50:30.393Z,95660.00
2024-05-09T03:51:26.633Z,95659.00
2024-05-09T03:52:25.660Z,95661.00
2024-05-09T03:53:25.716Z,95664.00
2024-05-09T03:54:25.754Z,95665.00
2024-05-09T03:55:25.787Z,95668.00
2024-05-09T03:56:25.850Z,95670.00
2024-05-09T03:57:25.855Z,95670.00
2024-05-09T03:58:25.837Z,95672.00
2024-05-09T03:59:26.005Z,95673.00
2024-05-09T04:00:34.408Z,95674.00
2024-05-09T04:01:27.071Z,95674.00
2024-05-09T04:02:26.069Z,95674.00
2024-05-09T04:03:26.317Z,95676.00
2024-05-09T04:04:26.125Z,95677.00
2024-05-09T04:05:26.186Z,95677.00
2024-05-09T04:06:26.170Z,95679.00
2024-05-09T04:07:26.164Z,95680.00
2024-05-09T04:08:26.277Z,95683.00
2024-05-09T04:09:26.267Z,95682.00
2024-05-09T04:10:31.280Z,95684.00
2024-05-09T04:11:27.425Z,95683.00
2024-05-09T04:12:26.543Z,95683.00
2024-05-09T04:13:26.474Z,95682.00
2024-05-09T04:14:26.556Z,95682.00
2024-05-09T04:15:26.528Z,95682.00
2024-05-09T04:16:26.568Z,95682.00
2024-05-09T04:17:26.809Z,95681.00
2024-05-09T04:18:26.726Z,95681.00
2024-05-09T04:19:26.750Z,95682.00
2024-05-09T04:20:36.842Z,95684.00
2024-05-09T04:21:27.730Z,95683.00
2024-05-09T04:22:27.216Z,95684.00
2024-05-09T04:23:26.800Z,95684.00
2024-05-09T04:24:26.834Z,95684.00
2024-05-09T04:25:26.826Z,95683.00
2024-05-09T04:26:26.933Z,95683.00
2024-05-09T04:27:26.901Z,95684.00
2024-05-09T04:28:26.924Z,95687.00
2024-05-09T04:29:27.050Z,95687.00
2024-05-09T04:30:34.987Z,95689.00
2024-05-09T04:31:28.095Z,95689.00
2024-05-09T04:32:27.332Z,95688.00
2024-05-09T04:33:27.291Z,95690.00
2024-05-09T04:34:27.218Z,95691.00
2024-05-09T04:35:27.392Z,95691.00
2024-05-09T04:36:27.300Z,95691.00
2024-05-09T04:37:27.330Z,95690.00
2024-05-09T04:38:27.365Z,95690.00
2024-05-09T04:39:27.401Z,95690.00
2024-05-09T04:40:33.219Z,95689.00
2024-05-09T04:41:28.586Z,95691.00
2024-05-09T04:42:27.481Z,95692.00
2024-05-09T04:43:27.524Z,95689.00
2024-05-09T04:44:34.891Z,95690.00
2024-05-09T04:45:35.063Z,95690.00
2024-05-09T04:46:34.846Z,95690.00
2024-05-09T04:47:34.984Z,95689.00
2024-05-09T04:48:34.923Z,95690.00
2024-05-09T04:49:35.121Z,95689.00
2024-05-09T04:50:38.264Z,95693.00
2024-05-09T04:51:34.849Z,95693.00
2024-05-09T04:52:34.856Z,95696.00
2024-05-09T04:53:34.914Z,95696.00
2024-05-09T04:54:36.594Z,95698.00
2024-05-09T04:55:34.858Z,95701.00
2024-05-09T04:56:34.912Z,95701.00
2024-05-09T04:57:34.859Z,95700.00
2024-05-09T04:58:34.882Z,95703.00
2024-05-09T04:59:34.882Z,95702.00
2024-05-09T05:00:37.401Z,95701.00
2024-05-09T05:01:34.909Z,95703.00
2024-05-09T05:02:34.961Z,95702.00
2024-05-09T05:03:35.068Z,95703.00
2024-05-09T05:04:34.897Z,95702.00
2024-05-09T05:05:34.935Z,95704.00
2024-05-09T05:06:34.978Z,95702.00
2024-05-09T05:07:34.872Z,95703.00
2024-05-09T05:08:34.987Z,95704.00
2024-05-09T05:09:34.880Z,95701.00
2024-05-09T05:11:34.936Z,95699.00
2024-05-09T05:12:34.990Z,95699.00
2024-05-09T05:13:36.638Z,95701.00
2024-05-09T05:14:34.927Z,95700.00
2024-05-09T05:15:34.869Z,95702.00
2024-05-09T05:16:34.878Z,95703.00
2024-05-09T05:17:35.133Z,95704.00
2024-05-09T05:18:34.983Z,95704.00
2024-05-09T05:19:35.112Z,95709.00
2024-05-09T05:20:34.954Z,95707.00
2024-05-09T05:21:34.999Z,95706.00
2024-05-09T05:22:34.895Z,95704.00
2024-05-09T05:23:35.017Z,95704.00
2024-05-09T05:24:34.944Z,95706.00
2024-05-09T05:25:34.887Z,95703.00
2024-05-09T05:26:35.111Z,95705.00
2024-05-09T05:27:34.902Z,95705.00
2024-05-09T05:28:34.895Z,95706.00
2024-05-09T05:29:35.108Z,95707.00
2024-05-09T05:30:35.334Z,95708.00
2024-05-09T05:31:34.940Z,95708.00
2024-05-09T05:32:35.029Z,95708.00
2024-05-09T05:33:35.571Z,95709.00
2024-05-09T05:34:34.905Z,95709.00
2024-05-09T05:35:35.140Z,95711.00
2024-05-09T05:36:34.938Z,95709.00
2024-05-09T05:37:34.940Z,95712.00
2024-05-09T05:38:34.969Z,95712.00
2024-05-09T05:39:34.933Z,95713.00
2024-05-09T05:40:37.110Z,95712.00
2024-05-09T05:41:35.031Z,95714.00
2024-05-09T05:42:34.940Z,95713.00
2024-05-09T05:43:34.953Z,95714.00
2024-05-09T05:44:34.959Z,95715.00
2024-05-09T05:45:34.937Z,95716.00
2024-05-09T05:46:34.913Z,95714.00
2024-05-09T05:47:35.232Z,95714.00
2024-05-09T05:48:34.984Z,95715.00
2024-05-09T05:49:35.029Z,95716.00
2024-05-09T05:50:37.326Z,95717.00
2024-05-09T05:51:34.931Z,95716.00
2024-05-09T05:52:35.029Z,95716.00
2024-05-09T05:53:35.080Z,95715.00
2024-05-09T05:54:34.941Z,95715.00
2024-05-09T05:55:34.941Z,95716.00
2024-05-09T05:56:34.988Z,95713.00
2024-05-09T05:57:34.949Z,95715.00
2024-05-09T05:58:34.959Z,95714.00
2024-05-09T05:59:35.078Z,95714.00
2024-05-09T06:00:38.472Z,95715.00
2024-05-09T06:01:35.966Z,95711.00
2024-05-09T06:02:35.049Z,95712.00
2024-05-09T06:03:35.103Z,95710.00
2024-05-09T06:04:35.054Z,95709.00
2024-05-09T06:05:35.003Z,95711.00
2024-05-09T06:06:35.026Z,95711.00
2024-05-09T06:07:34.955Z,95709.00
2024-05-09T06:08:35.013Z,95709.00
2024-05-09T06:09:34.935Z,95710.00
2024-05-09T06:10:38.971Z,95709.00
2024-05-09T06:11:36.068Z,95708.00
2024-05-09T06:12:34.993Z,95708.00
2024-05-09T06:13:34.969Z,95708.00
2024-05-09T06:14:34.980Z,95708.00
2024-05-09T06:15:35.024Z,95706.00
2024-05-09T06:16:34.982Z,95706.00
2024-05-09T06:17:35.058Z,95706.00
2024-05-09T06:18:35.299Z,95708.00
2024-05-09T06:19:35.031Z,95707.00
2024-05-09T06:20:37.460Z,95707.00
2024-05-09T06:21:35.011Z,95706.00
2024-05-09T06:22:34.973Z,95705.00
2024-05-09T06:23:35.121Z,95705.00
2024-05-09T06:24:34.993Z,95704.00
2024-05-09T06:25:35.170Z,95703.00
2024-05-09T06:26:35.056Z,95704.00
2024-05-09T06:27:35.006Z,95705.00
2024-05-09T06:28:35.003Z,95705.00
2024-05-09T06:29:35.016Z,95705.00
2024-05-09T06:30:39.304Z,95704.00
2024-05-09T06:31:35.991Z,95702.00
2024-05-09T06:32:35.261Z,95702.00
2024-05-09T06:33:35.127Z,95700.00
2024-05-09T06:34:35.052Z,95703.00
2024-05-09T06:35:35.187Z,95703.00
2024-05-09T06:36:35.037Z,95702.00
2024-05-09T06:37:35.058Z,95701.00
2024-05-09T06:38:35.047Z,95701.00
2024-05-09T06:39:35.036Z,95698.00
2024-05-09T06:40:38.332Z,95698.00
2024-05-09T06:41:35.132Z,95698.00
2024-05-09T06:42:35.092Z,95697.00
2024-05-09T06:43:35.061Z,95696.00
2024-05-09T06:44:35.170Z,95695.00
2024-05-09T06:45:35.087Z,95697.00
2024-05-09T06:46:35.132Z,95697.00
2024-05-09T06:47:35.269Z,95698.00
2024-05-09T06:48:35.256Z,95700.00
2024-05-09T06:49:35.243Z,95699.00
2024-05-09T06:50:37.817Z,95702.00
2024-05-09T06:51:35.126Z,95703.00
2024-05-09T06:52:35.130Z,95704.00
2024-05-09T06:53:35.214Z,95705.00
2024-05-09T06:54:35.127Z,95705.00
2024-05-09T06:55:35.140Z,95706.00
2024-05-09T06:56:35.200Z,95704.00
2024-05-09T06:57:35.153Z,95703.00
2024-05-09T06:58:35.110Z,95702.00
2024-05-09T06:59:35.222Z,95703.00
2024-05-09T07:00:39.258Z,95699.00
2024-05-09T07:01:36.285Z,95699.00
2024-05-09T07:02:35.202Z,95698.00
2024-05-09T07:03:35.240Z,95698.00
2024-05-09T07:04:35.266Z,95699.00
2024-05-09T07:05:35.203Z,95700.00
2024-05-09T07:06:35.149Z,95702.00
2024-05-09T07:07:35.170Z,95704.00
2024-05-09T07:08:35.195Z,95704.00
2024-05-09T07:09:35.249Z,95705.00
2024-05-09T07:10:36.340Z,95705.00
2024-05-09T07:11:35.430Z,95706.00
2024-05-09T07:12:35.514Z,95703.00
2024-05-09T07:13:35.423Z,95704.00
2024-05-09T07:14:36.980Z,95704.00
2024-05-09T07:15:35.676Z,95701.00
2024-05-09T07:16:35.741Z,95700.00
2024-05-09T07:17:35.971Z,95701.00
2024-05-09T07:18:36.089Z,95701.00
2024-05-09T07:19:36.016Z,95699.00
2024-05-09T07:20:35.917Z,95698.00
2024-05-09T07:21:35.904Z,95696.00
2024-05-09T07:22:35.936Z,95694.00
2024-05-09T07:23:36.096Z,95691.00
2024-05-09T07:24:36.002Z,95691.00
2024-05-09T07:25:36.025Z,95688.00
2024-05-09T07:26:36.260Z,95687.00
2024-05-09T07:27:36.223Z,95686.00
2024-05-09T07:28:36.309Z,95685.00
2024-05-09T07:29:38.447Z,95685.00
2024-05-09T07:30:36.498Z,95684.00
2024-05-09T07:31:36.562Z,95684.00
2024-05-09T07:32:36.859Z,95684.00
2024-05-09T07:33:36.879Z,95684.00
2024-05-09T07:34:36.887Z,95686.00
2024-05-09T07:35:37.074Z,95683.00
2024-05-09T07:36:37.045Z,95685.00
2024-05-09T07:37:37.159Z,95686.00
2024-05-09T07:38:37.451Z,95687.00
2024-05-09T07:39:37.392Z,95689.00
2024-05-09T07:40:37.437Z,95688.00
2024-05-09T07:41:37.811Z,95688.00
2024-05-09T07:42:37.707Z,95686.00
2024-05-09T07:43:37.743Z,95687.00
2024-05-09T07:44:37.954Z,95683.00
2024-05-09T07:45:48.485Z,95683.00
2024-05-09T07:47:47.358Z,95681.00
2024-05-09T07:48:58.113Z,95679.00
2024-05-09T07:53:33.960Z,95678.00
2024-05-09T07:53:44.140Z,95676.00
2024-05-09T07:54:39.228Z,95677.00
2024-05-09T07:55:38.136Z,95675.00
2024-05-09T07:56:38.489Z,95675.00
2024-05-09T07:57:38.061Z,95674.00
2024-05-09T07:58:38.012Z,95674.00
2024-05-09T07:59:38.184Z,95675.00
2024-05-09T08:00:38.107Z,95676.00
2024-05-09T08:01:38.086Z,95675.00
2024-05-09T08:02:38.065Z,95675.00
2024-05-09T08:03:38.252Z,95676.00
2024-05-09T08:04:38.160Z,95673.00
2024-05-09T08:05:38.072Z,95675.00
2024-05-09T08:06:38.103Z,95674.00
2024-05-09T08:07:38.006Z,95674.00
2024-05-09T08:08:38.051Z,95673.00
2024-05-09T08:09:38.519Z,95673.00
2024-05-09T08:10:38.083Z,95673.00
2024-05-09T08:11:38.066Z,95671.00
2024-05-09T08:12:38.072Z,95670.00
2024-05-09T08:13:38.110Z,95669.00
2024-05-09T08:14:38.031Z,95670.00
2024-05-09T08:15:38.137Z,95670.00
2024-05-09T08:16:38.027Z,95668.00
2024-05-09T08:17:38.259Z,95670.00
2024-05-09T08:18:38.462Z,95669.00
2024-05-09T08:19:38.455Z,95668.00
2024-05-09T08:20:38.454Z,95667.00
2024-05-09T08:21:38.645Z,95667.00
2024-05-09T08:22:38.623Z,95668.00
2024-05-09T08:23:38.762Z,95666.00
2024-05-09T08:24:38.905Z,95666.00
2024-05-09T08:25:38.992Z,95665.00
2024-05-09T08:26:39.056Z,95667.00
2024-05-09T08:27:39.200Z,95667.00
2024-05-09T08:28:39.274Z,95663.00
2024-05-09T08:29:39.425Z,95662.00
2024-05-09T08:30:39.639Z,95664.00
2024-05-09T08:32:39.843Z,95659.00
2024-05-09T08:33:39.986Z,95660.00
2024-05-09T08:34:39.956Z,95660.00
2024-05-09T08:35:40.022Z,95660.00
2024-05-09T08:36:40.144Z,95661.00
2024-05-09T08:37:40.844Z,95660.00
2024-05-09T08:38:40.333Z,95661.00
2024-05-09T08:39:40.446Z,95662.00
2024-05-09T08:40:40.547Z,95660.00
2024-05-09T08:41:40.631Z,95662.00
2024-05-09T08:42:40.770Z,95662.00
2024-05-09T08:43:42.124Z,95661.00
2024-05-09T08:44:40.988Z,95661.00
2024-05-09T08:45:41.073Z,95663.00
2024-05-09T08:46:41.171Z,95660.00
2024-05-09T08:47:41.408Z,95658.00
2024-05-09T08:48:41.483Z,95659.00
2024-05-09T08:49:41.693Z,95657.00
2024-05-09T08:50:41.794Z,95655.00
2024-05-09T08:51:41.746Z,95655.00
2024-05-09T08:52:41.799Z,95653.00
2024-05-09T08:53:41.897Z,95655.00
2024-05-09T08:54:42.059Z,95655.00
2024-05-09T08:55:43.698Z,95652.00
2024-05-09T08:56:42.229Z,95654.00
2024-05-09T08:57:42.242Z,95652.00
2024-05-09T08:58:42.239Z,95652.00
2024-05-09T08:59:42.356Z,95655.00
2024-05-09T09:00:42.614Z,95653.00
2024-05-09T09:01:42.669Z,95651.00
2024-05-09T09:02:42.800Z,95652.00
2024-05-09T09:03:43.063Z,95651.00
2024-05-09T09:04:42.931Z,95648.00
2024-05-09T09:05:42.958Z,95648.00
2024-05-09T09:06:42.934Z,95649.00
2024-05-09T09:07:42.926Z,95650.00
2024-05-09T09:08:42.956Z,95647.00
2024-05-09T09:09:43.010Z,95645.00
2024-05-09T09:10:43.342Z,95641.00
2024-05-09T09:11:43.096Z,95643.00
2024-05-09T09:12:43.155Z,95642.00
2024-05-09T09:13:43.124Z,95643.00
2024-05-09T09:14:43.247Z,95642.00
2024-05-09T09:15:43.423Z,95640.00
2024-05-09T09:16:43.451Z,95641.00
2024-05-09T09:17:43.628Z,95641.00
2024-05-09T09:18:43.845Z,95638.00
2024-05-09T09:19:43.823Z,95636.00
2024-05-09T09:20:44.034Z,95635.00
2024-05-09T09:21:44.040Z,95638.00
2024-05-09T09:22:44.104Z,95639.00
2024-05-09T09:23:44.220Z,95638.00
2024-05-09T09:24:44.359Z,95636.00
2024-05-09T09:25:44.413Z,95631.00
2024-05-09T09:26:44.492Z,95629.00
2024-05-09T09:27:44.669Z,95629.00
2024-05-09T09:28:44.682Z,95629.00
2024-05-09T09:29:44.779Z,95627.00
2024-05-09T09:30:44.998Z,95627.00
2024-05-09T09:31:44.998Z,95627.00
2024-05-09T09:32:45.242Z,95631.00
2024-05-09T09:33:45.475Z,95629.00
2024-05-09T09:34:45.498Z,95626.00
2024-05-09T09:35:45.409Z,95623.00
2024-05-09T09:36:45.557Z,95625.00
2024-05-09T09:37:45.627Z,95621.00
2024-05-09T09:38:45.719Z,95623.00
2024-05-09T09:39:48.913Z,95624.00
2024-05-09T09:40:49.411Z,95622.00
2024-05-09T09:41:45.856Z,95622.00
2024-05-09T09:42:45.871Z,95619.00
2024-05-09T09:43:45.846Z,95616.00
2024-05-09T09:44:54.451Z,95610.00
2024-05-09T09:45:46.863Z,95610.00
2024-05-09T09:46:45.852Z,95608.00
2024-05-09T09:47:46.079Z,95605.00
2024-05-09T09:48:45.866Z,95606.00
2024-05-09T09:49:45.883Z,95607.00
2024-05-09T09:50:45.831Z,95607.00
2024-05-09T09:51:45.882Z,95607.00
2024-05-09T09:52:45.876Z,95603.00
2024-05-09T09:53:45.842Z,95601.00
2024-05-09T09:54:45.896Z,95600.00
2024-05-09T09:55:46.007Z,95603.00
2024-05-09T09:56:46.079Z,95601.00
2024-05-09T09:57:46.236Z,95601.00
2024-05-09T09:58:46.300Z,95605.00
2024-05-09T09:59:46.370Z,95599.00
2024-05-09T10:00:46.608Z,95601.00
2024-05-09T10:01:46.729Z,95599.00
2024-05-09T10:02:46.719Z,95601.00
2024-05-09T10:03:46.943Z,95596.00
2024-05-09T10:04:46.918Z,95598.00
2024-05-09T10:05:47.533Z,95594.00
2024-05-09T10:06:47.026Z,95586.00
2024-05-09T10:07:47.066Z,95588.00
2024-05-09T10:08:47.090Z,95587.00
2024-05-09T10:09:47.246Z,95586.00
2024-05-09T10:10:47.679Z,95583.00
2024-05-09T10:11:51.840Z,95583.00
2024-05-09T10:12:48.287Z,95581.00
2024-05-09T10:13:47.235Z,95580.00
2024-05-09T10:14:47.229Z,95577.00
2024-05-09T10:15:47.280Z,95575.00
2024-05-09T10:16:47.257Z,95572.00
2024-05-09T10:17:47.369Z,95571.00
2024-05-09T10:18:47.456Z,95570.00
2024-05-09T10:19:47.300Z,95564.00
2024-05-09T10:20:47.257Z,95561.00
2024-05-09T10:21:47.438Z,95563.00
2024-05-09T10:22:47.270Z,95561.00
2024-05-09T10:23:47.284Z,95562.00
2024-05-09T10:24:47.303Z,95561.00
2024-05-09T10:25:47.311Z,95562.00
2024-05-09T10:26:47.309Z,95560.00
2024-05-09T10:27:47.406Z,95560.00
2024-05-09T10:28:47.410Z,95560.00
2024-05-09T10:29:47.478Z,95559.00
2024-05-09T10:30:48.979Z,95556.00
2024-05-09T10:31:47.672Z,95552.00
2024-05-09T10:32:47.630Z,95555.00
2024-05-09T10:33:47.980Z,95555.00
2024-05-09T10:34:47.684Z,95556.00
2024-05-09T10:35:47.564Z,95557.00
2024-05-09T10:36:47.611Z,95556.00
2024-05-09T10:37:47.596Z,95553.00
2024-05-09T10:38:47.620Z,95553.00
2024-05-09T10:39:47.632Z,95552.00
2024-05-09T10:40:47.625Z,95548.00
2024-05-09T10:41:47.586Z,95546.00
2024-05-09T10:42:47.657Z,95546.00
2024-05-09T10:43:47.675Z,95541.00
2024-05-09T10:44:47.603Z,95540.00
2024-05-09T10:45:47.639Z,95539.00
2024-05-09T10:46:47.628Z,95539.00
2024-05-09T10:47:47.761Z,95536.00
2024-05-09T10:48:48.232Z,95536.00
2024-05-09T10:49:47.811Z,95535.00
2024-05-09T10:50:47.632Z,95534.00
2024-05-09T10:51:47.625Z,95530.00
2024-05-09T10:52:47.672Z,95531.00
2024-05-09T10:53:47.705Z,95530.00
2024-05-09T10:54:47.767Z,95529.00
2024-05-09T10:55:47.640Z,95527.00
2024-05-09T10:56:47.649Z,95524.00
2024-05-09T10:57:47.686Z,95523.00
2024-05-09T10:58:47.652Z,95522.00
2024-05-09T10:59:47.673Z,95519.00
2024-05-09T11:00:47.744Z,95517.00
2024-05-09T11:01:47.750Z,95516.00
2024-05-09T11:02:47.747Z,95517.00
2024-05-09T11:03:48.021Z,95515.00
2024-05-09T11:04:47.830Z,95516.00
2024-05-09T11:05:47.760Z,95512.00
2024-05-09T11:06:47.895Z,95511.00
2024-05-09T11:07:47.920Z,95508.00
2024-05-09T11:08:48.008Z,95509.00
2024-05-09T11:09:48.178Z,95508.00
2024-05-09T11:10:48.319Z,95506.00
2024-05-09T11:11:48.391Z,95504.00
2024-05-09T11:12:48.483Z,95505.00
2024-05-09T11:13:48.540Z,95503.00
2024-05-09T11:14:48.647Z,95501.00
2024-05-09T11:15:48.749Z,95502.00
2024-05-09T11:16:48.896Z,95502.00
2024-05-09T11:17:49.040Z,95503.00
2024-05-09T11:18:49.238Z,95503.00
2024-05-09T11:19:49.213Z,95503.00
2024-05-09T11:20:49.338Z,95502.00
2024-05-09T11:21:49.387Z,95497.00
2024-05-09T11:22:49.462Z,95495.00
2024-05-09T11:23:49.566Z,95493.00
2024-05-09T11:24:49.683Z,95494.00
2024-05-09T11:25:50.607Z,95492.00
2024-05-09T11:26:49.975Z,95492.00
2024-05-09T11:27:49.997Z,95491.00
2024-05-09T11:28:50.091Z,95489.00
2024-05-09T11:29:50.153Z,95486.00
2024-05-09T11:30:50.356Z,95489.00
2024-05-09T11:31:50.520Z,95490.00
2024-05-09T11:32:50.640Z,95491.00
2024-05-09T11:33:50.760Z,95485.00
2024-05-09T11:34:50.688Z,95485.00
2024-05-09T11:35:50.785Z,95482.00
2024-05-09T11:36:50.905Z,95482.00
2024-05-09T11:37:50.993Z,95479.00
2024-05-09T11:38:51.057Z,95480.00
2024-05-09T11:39:51.229Z,95480.00
2024-05-09T11:40:51.311Z,95478.00
2024-05-09T11:41:51.386Z,95475.00
2024-05-09T11:42:53.282Z,95478.00
2024-05-09T11:43:51.548Z,95478.00
2024-05-09T11:44:51.555Z,95475.00
2024-05-09T11:45:51.643Z,95466.00
2024-05-09T11:46:51.624Z,95464.00
2024-05-09T11:47:51.798Z,95465.00
2024-05-09T11:48:51.911Z,95465.00
2024-05-09T11:49:51.813Z,95460.00
2024-05-09T11:50:51.904Z,95461.00
2024-05-09T11:51:52.102Z,95461.00
2024-05-09T11:52:52.124Z,95460.00
2024-05-09T11:53:52.218Z,95463.00
2024-05-09T11:54:52.325Z,95460.00
2024-05-09T11:55:52.371Z,95461.00
2024-05-09T11:56:52.488Z,95454.00